createdAt,value
2019-03-16T00:00:33.014Z,3.60
2019-03-16T00:02:59.842Z,3.70
2019-03-16T00:05:26.647Z,3.70
2019-03-16T00:07:53.482Z,3.70
2019-03-16T00:10:20.523Z,3.60
2019-03-16T00:12:47.409Z,3.60
2019-03-16T00:15:14.465Z,3.60
2019-03-16T00:17:41.298Z,3.60
2019-03-16T00:20:08.314Z,3.60
2019-03-16T00:22:35.181Z,3.60
2019-03-16T00:25:02.234Z,3.50
2019-03-16T00:27:29.290Z,3.50
2019-03-16T00:29:56.153Z,3.50
2019-03-16T00:32:22.946Z,3.40
2019-03-16T00:34:49.752Z,3.40
2019-03-16T00:37:16.723Z,3.40
2019-03-16T00:39:43.639Z,3.40
2019-03-16T00:42:10.480Z,3.40
2019-03-16T00:44:37.350Z,3.40
2019-03-16T00:47:04.503Z,3.40
2019-03-16T00:49:31.424Z,3.30
2019-03-16T00:51:58.378Z,3.30
2019-03-16T00:54:25.420Z,3.30
2019-03-16T00:56:52.501Z,3.20
2019-03-16T00:59:19.457Z,3.10
2019-03-16T01:01:46.316Z,3.00
2019-03-16T01:04:13.117Z,2.90
2019-03-16T01:06:40.092Z,2.80
2019-03-16T01:09:07.203Z,2.80
2019-03-16T01:11:34.126Z,2.70
2019-03-16T01:14:01.102Z,2.60
2019-03-16T01:16:29.166Z,2.60
2019-03-16T01:18:56.107Z,2.60
2019-03-16T01:21:22.999Z,2.60
2019-03-16T01:23:49.890Z,2.60
2019-03-16T01:26:16.797Z,2.50
2019-03-16T01:28:43.646Z,2.60
2019-03-16T01:31:10.591Z,2.60
2019-03-16T01:33:37.608Z,2.60
2019-03-16T01:36:04.455Z,2.70
2019-03-16T01:38:31.385Z,2.70
2019-03-16T01:40:58.315Z,2.70
2019-03-16T01:43:25.187Z,2.80
2019-03-16T01:45:52.026Z,2.90
2019-03-16T01:48:18.933Z,2.90
2019-03-16T01:50:45.888Z,3.00
2019-03-16T01:53:12.838Z,3.00
2019-03-16T01:55:39.727Z,3.00
2019-03-16T01:58:06.599Z,3.10
2019-03-16T02:00:33.610Z,3.10
2019-03-16T02:03:00.519Z,3.10
2019-03-16T02:05:27.371Z,3.10
2019-03-16T02:07:54.208Z,3.20
2019-03-16T02:10:21.136Z,3.20
2019-03-16T02:12:48.158Z,3.30
2019-03-16T02:15:15.323Z,3.30
2019-03-16T02:17:42.387Z,3.30
2019-03-16T02:20:09.438Z,3.30
2019-03-16T02:22:36.460Z,3.40
2019-03-16T02:25:03.596Z,3.40
2019-03-16T02:27:30.564Z,3.40
2019-03-16T02:29:57.361Z,3.40
2019-03-16T02:32:24.230Z,3.40
2019-03-16T02:34:51.300Z,3.40
2019-03-16T02:37:18.169Z,3.40
2019-03-16T02:39:45.108Z,3.50
2019-03-16T02:42:12.150Z,3.50
2019-03-16T02:44:38.982Z,3.50
2019-03-16T02:47:05.914Z,3.60
2019-03-16T02:49:32.879Z,3.70
2019-03-16T02:51:59.726Z,3.70
2019-03-16T02:54:26.828Z,3.80
2019-03-16T02:56:53.955Z,4.00
2019-03-16T02:59:20.756Z,4.10
2019-03-16T03:01:47.677Z,4.10
2019-03-16T03:04:14.550Z,4.20
2019-03-16T03:06:41.541Z,4.20
2019-03-16T03:09:08.677Z,4.10
2019-03-16T03:11:35.776Z,4.20
2019-03-16T03:14:02.875Z,4.20
2019-03-16T03:16:29.788Z,4.20
2019-03-16T03:18:56.651Z,4.20
2019-03-16T03:21:23.480Z,4.20
2019-03-16T03:23:50.478Z,4.30
2019-03-16T03:26:17.415Z,4.30
2019-03-16T03:28:44.248Z,4.40
2019-03-16T03:31:11.146Z,4.40
2019-03-16T03:33:59.083Z,4.40
2019-03-16T03:36:06.698Z,4.50
2019-03-16T03:38:33.736Z,4.40
2019-03-16T03:41:01.893Z,4.50
2019-03-16T03:43:29.085Z,4.50
2019-03-16T03:45:56.112Z,4.50
2019-03-16T03:48:23.059Z,4.50
2019-03-16T03:50:49.890Z,4.60
2019-03-16T03:53:16.726Z,4.50
2019-03-16T03:55:43.568Z,4.50
2019-03-16T03:58:10.485Z,4.50
2019-03-16T04:00:37.515Z,4.50
2019-03-16T04:03:04.603Z,4.50
2019-03-16T04:05:31.631Z,4.50
2019-03-16T04:07:58.442Z,4.50
2019-03-16T04:10:25.583Z,4.50
2019-03-16T04:12:53.143Z,4.50
2019-03-16T04:15:20.284Z,4.60
2019-03-16T04:17:47.348Z,4.60
2019-03-16T04:20:14.382Z,4.50
2019-03-16T04:22:41.404Z,4.50
2019-03-16T04:25:08.498Z,4.50
2019-03-16T04:27:35.811Z,4.50
2019-03-16T04:30:03.152Z,4.50
2019-03-16T04:32:30.007Z,4.60
2019-03-16T04:34:56.818Z,4.50
2019-03-16T04:37:23.607Z,4.50
2019-03-16T04:39:50.579Z,4.50
2019-03-16T04:42:17.393Z,4.50
2019-03-16T04:44:44.233Z,4.50
2019-03-16T04:47:11.481Z,4.60
2019-03-16T04:49:38.434Z,4.60
2019-03-16T04:52:05.328Z,4.60
2019-03-16T04:54:32.175Z,4.60
2019-03-16T04:56:59.023Z,4.60
2019-03-16T04:59:29.026Z,4.60
2019-03-16T05:01:56.090Z,4.60
2019-03-16T05:04:22.924Z,4.60
2019-03-16T05:06:49.735Z,4.60
2019-03-16T05:09:16.801Z,4.60
2019-03-16T05:11:43.612Z,4.50
2019-03-16T05:14:10.458Z,4.60
2019-03-16T05:16:37.312Z,4.60
2019-03-16T05:19:04.250Z,4.60
2019-03-16T05:21:31.194Z,4.60
2019-03-16T05:23:58.149Z,4.60
2019-03-16T05:26:24.968Z,4.70
2019-03-16T05:28:51.821Z,4.70
2019-03-16T05:31:18.661Z,4.70
2019-03-16T05:33:45.495Z,4.80
2019-03-16T05:36:12.505Z,4.80
2019-03-16T05:38:39.459Z,4.80
2019-03-16T05:41:06.646Z,4.80
2019-03-16T05:43:33.491Z,4.70
2019-03-16T05:46:00.431Z,4.80
2019-03-16T05:48:27.365Z,4.80
2019-03-16T05:50:57.377Z,4.70
2019-03-16T05:53:23.174Z,4.80
2019-03-16T05:55:49.974Z,4.70
2019-03-16T05:58:16.895Z,4.70
2019-03-16T06:00:43.951Z,4.80
2019-03-16T06:03:10.891Z,4.80
2019-03-16T06:05:38.606Z,4.80
2019-03-16T06:08:05.576Z,4.80
2019-03-16T06:10:32.395Z,4.80
2019-03-16T06:12:59.220Z,4.70
2019-03-16T06:15:26.083Z,4.80
2019-03-16T06:17:52.990Z,4.80
2019-03-16T06:20:20.823Z,4.80
2019-03-16T06:22:47.792Z,4.70
2019-03-16T06:25:14.779Z,4.70
2019-03-16T06:27:41.917Z,4.70
2019-03-16T06:30:08.992Z,4.80
2019-03-16T06:32:35.813Z,5.00
2019-03-16T06:35:02.970Z,5.00
2019-03-16T06:37:29.835Z,5.10
2019-03-16T06:39:56.667Z,5.10
2019-03-16T06:42:23.518Z,5.10
2019-03-16T06:44:50.369Z,5.10
2019-03-16T06:47:17.300Z,5.20
2019-03-16T06:49:44.181Z,5.20
2019-03-16T06:52:11.145Z,5.20
2019-03-16T06:54:37.969Z,5.20
2019-03-16T06:57:04.962Z,5.30
2019-03-16T06:59:31.794Z,5.20
2019-03-16T07:01:58.604Z,5.30
2019-03-16T07:04:45.086Z,5.30
2019-03-16T07:07:11.915Z,5.30
2019-03-16T07:09:38.717Z,5.30
2019-03-16T07:12:05.589Z,5.20
2019-03-16T07:14:32.423Z,5.30
2019-03-16T07:17:02.398Z,5.40
2019-03-16T07:19:28.090Z,5.50
2019-03-16T07:21:54.916Z,5.50
2019-03-16T07:24:21.749Z,5.40
2019-03-16T07:26:48.594Z,5.50
2019-03-16T07:29:15.424Z,5.60
2019-03-16T07:31:42.257Z,5.60
2019-03-16T07:34:09.220Z,5.60
2019-03-16T07:36:36.342Z,5.60
2019-03-16T07:39:05.388Z,5.60
2019-03-16T07:41:32.242Z,5.60
2019-03-16T07:43:59.047Z,5.60
2019-03-16T07:46:26.073Z,5.70
2019-03-16T07:48:53.290Z,5.80
2019-03-16T07:51:20.427Z,5.90
2019-03-16T07:53:47.239Z,5.90
2019-03-16T07:56:14.302Z,6.00
2019-03-16T07:58:41.117Z,6.00
2019-03-16T08:01:08.066Z,6.10
2019-03-16T08:03:34.952Z,6.10
2019-03-16T08:06:01.795Z,6.20
2019-03-16T08:08:28.912Z,6.20
2019-03-16T08:10:55.769Z,6.20
2019-03-16T08:13:22.580Z,6.30
2019-03-16T08:15:49.405Z,6.30
2019-03-16T08:18:16.241Z,6.40
2019-03-16T08:20:43.169Z,6.50
2019-03-16T08:23:09.959Z,6.50
2019-03-16T08:25:36.910Z,6.60
2019-03-16T08:28:03.853Z,6.50
2019-03-16T08:30:30.763Z,6.50
2019-03-16T08:32:57.614Z,6.40
2019-03-16T08:35:24.538Z,6.40
2019-03-16T08:37:51.350Z,6.30
2019-03-16T08:40:18.706Z,6.30
2019-03-16T08:42:45.698Z,6.30
2019-03-16T08:45:12.724Z,6.30
2019-03-16T08:47:39.651Z,6.30
2019-03-16T08:50:06.698Z,6.40
2019-03-16T08:52:33.617Z,6.40
2019-03-16T08:55:00.585Z,6.40
2019-03-16T08:57:27.494Z,6.40
2019-03-16T08:59:54.325Z,6.40
2019-03-16T09:02:21.300Z,6.50
2019-03-16T09:04:48.101Z,6.70
2019-03-16T09:07:15.826Z,6.80
2019-03-16T09:09:42.768Z,7.10
2019-03-16T09:12:09.693Z,7.10
2019-03-16T09:14:36.613Z,7.20
2019-03-16T09:17:03.563Z,7.20
2019-03-16T09:19:30.369Z,7.20
2019-03-16T09:21:57.173Z,7.30
2019-03-16T09:24:24.129Z,7.30
2019-03-16T09:26:51.009Z,7.20
2019-03-16T09:29:17.823Z,7.20
2019-03-16T09:31:44.774Z,7.00
2019-03-16T09:34:11.680Z,7.00
2019-03-16T09:36:38.490Z,6.90
2019-03-16T09:39:06.594Z,7.00
2019-03-16T09:41:33.426Z,7.10
2019-03-16T09:44:01.987Z,7.00
2019-03-16T09:46:29.198Z,6.90
2019-03-16T09:48:56.105Z,7.00
2019-03-16T09:51:22.990Z,7.20
2019-03-16T09:53:49.824Z,7.30
2019-03-16T09:56:16.650Z,7.30
2019-03-16T09:58:43.457Z,7.40
2019-03-16T10:01:10.565Z,7.50
2019-03-16T10:03:37.410Z,7.50
2019-03-16T10:06:04.434Z,7.50
2019-03-16T10:08:31.299Z,7.50
2019-03-16T10:10:58.190Z,7.40
2019-03-16T10:13:24.994Z,7.40
2019-03-16T10:15:51.810Z,7.50
2019-03-16T10:18:18.603Z,7.30
2019-03-16T10:20:45.424Z,7.30
2019-03-16T10:23:12.363Z,7.30
2019-03-16T10:25:39.261Z,7.20
2019-03-16T10:28:06.169Z,7.30
2019-03-16T10:30:32.993Z,7.40
2019-03-16T10:32:59.809Z,7.60
2019-03-16T10:35:26.607Z,7.60
2019-03-16T10:37:53.443Z,7.70
2019-03-16T10:40:20.239Z,7.60
2019-03-16T10:42:47.045Z,7.50
2019-03-16T10:45:14.083Z,7.60
2019-03-16T10:47:40.892Z,7.70
2019-03-16T10:50:08.221Z,7.80
2019-03-16T10:52:35.718Z,7.70
2019-03-16T10:55:02.770Z,7.70
2019-03-16T10:57:29.580Z,7.80
2019-03-16T10:59:56.617Z,7.80
2019-03-16T11:02:23.423Z,7.70
2019-03-16T11:04:50.219Z,7.70
2019-03-16T11:07:17.277Z,7.60
2019-03-16T11:09:44.086Z,7.70
2019-03-16T11:12:10.986Z,7.70
2019-03-16T11:14:40.971Z,7.70
2019-03-16T11:17:06.652Z,7.70
2019-03-16T11:19:33.466Z,7.60
2019-03-16T11:22:00.317Z,7.70
2019-03-16T11:24:27.122Z,7.70
2019-03-16T11:26:54.030Z,7.80
2019-03-16T11:29:20.874Z,7.90
2019-03-16T11:31:47.686Z,7.90
2019-03-16T11:34:14.486Z,7.80
2019-03-16T11:36:41.348Z,7.90
2019-03-16T11:39:08.354Z,7.90
2019-03-16T11:41:35.165Z,7.90
2019-03-16T11:44:02.131Z,8.00
2019-03-16T11:46:29.017Z,7.90
2019-03-16T11:48:55.877Z,8.00
2019-03-16T11:51:22.719Z,8.00
2019-03-16T11:53:49.675Z,8.00
2019-03-16T11:56:18.169Z,8.10
2019-03-16T11:59:05.053Z,8.10
2019-03-16T12:01:31.863Z,8.00
2019-03-16T12:03:58.664Z,7.90
2019-03-16T12:06:25.517Z,7.90
2019-03-16T12:08:52.454Z,7.80
2019-03-16T12:11:19.258Z,7.90
2019-03-16T12:13:46.137Z,8.00
2019-03-16T12:16:12.951Z,8.00
2019-03-16T12:18:39.844Z,7.90
2019-03-16T12:21:06.700Z,7.80
2019-03-16T12:23:33.498Z,8.00
2019-03-16T12:26:00.316Z,8.10
2019-03-16T12:28:27.251Z,8.30
2019-03-16T12:30:54.049Z,8.30
2019-03-16T12:33:20.850Z,8.30
2019-03-16T12:35:47.780Z,8.30
2019-03-16T12:38:14.562Z,8.30
2019-03-16T12:40:41.463Z,8.40
2019-03-16T12:43:08.399Z,8.60
2019-03-16T12:45:35.554Z,8.80
2019-03-16T12:48:02.367Z,8.60
2019-03-16T12:50:29.357Z,8.40
2019-03-16T12:52:56.192Z,8.50
2019-03-16T12:55:23.193Z,8.60
2019-03-16T12:57:50.046Z,8.40
2019-03-16T13:00:17.089Z,8.50
2019-03-16T13:02:44.227Z,8.70
2019-03-16T13:05:11.302Z,8.90
2019-03-16T13:07:38.086Z,8.90
2019-03-16T13:10:06.577Z,9.00
2019-03-16T13:12:33.549Z,8.90
2019-03-16T13:15:00.530Z,8.90
2019-03-16T13:17:27.382Z,8.90
2019-03-16T13:19:54.232Z,8.90
2019-03-16T13:22:21.243Z,8.90
2019-03-16T13:24:48.059Z,8.70
2019-03-16T13:27:14.905Z,8.90
2019-03-16T13:29:41.848Z,8.80
2019-03-16T13:32:08.743Z,8.80
2019-03-16T13:34:35.876Z,8.80
2019-03-16T13:37:02.679Z,8.90
2019-03-16T13:39:29.558Z,8.90
2019-03-16T13:41:56.398Z,8.70
2019-03-16T13:44:23.207Z,8.70
2019-03-16T13:46:50.005Z,8.70
2019-03-16T13:49:16.850Z,8.60
2019-03-16T13:51:43.664Z,8.70
2019-03-16T13:54:10.484Z,8.70
2019-03-16T13:56:37.332Z,8.70
2019-03-16T13:59:04.263Z,8.60
2019-03-16T14:01:31.462Z,8.80
2019-03-16T14:03:58.406Z,8.70
2019-03-16T14:06:25.316Z,8.80
2019-03-16T14:08:52.509Z,8.80
2019-03-16T14:11:19.378Z,8.80
2019-03-16T14:13:46.200Z,8.70
2019-03-16T14:16:13.514Z,8.70
2019-03-16T14:18:40.461Z,8.70
2019-03-16T14:21:07.253Z,8.80
2019-03-16T14:23:34.094Z,8.50
2019-03-16T14:26:01.043Z,8.50
2019-03-16T14:28:27.953Z,8.60
2019-03-16T14:30:55.186Z,8.50
2019-03-16T14:33:22.055Z,8.60
2019-03-16T14:35:48.968Z,8.70
2019-03-16T14:38:15.857Z,8.60
2019-03-16T14:40:42.704Z,8.40
2019-03-16T14:43:11.461Z,8.40
2019-03-16T14:45:38.405Z,8.30
2019-03-16T14:48:05.266Z,8.30
2019-03-16T14:50:32.154Z,8.20
2019-03-16T14:52:58.969Z,8.10
2019-03-16T14:55:25.925Z,8.00
2019-03-16T14:57:52.847Z,7.90
2019-03-16T15:00:19.786Z,7.80
2019-03-16T15:02:47.024Z,7.90
2019-03-16T15:05:14.445Z,7.80
2019-03-16T15:07:41.484Z,7.80
2019-03-16T15:10:08.534Z,7.70
2019-03-16T15:12:35.497Z,7.50
2019-03-16T15:15:03.827Z,7.50
2019-03-16T15:17:30.683Z,7.30
2019-03-16T15:19:57.566Z,7.30
2019-03-16T15:22:24.383Z,7.30
2019-03-16T15:24:51.247Z,7.30
2019-03-16T15:27:18.061Z,7.40
2019-03-16T15:29:44.877Z,7.20
2019-03-16T15:32:11.723Z,7.20
2019-03-16T15:34:38.522Z,7.20
2019-03-16T15:37:05.371Z,7.10
2019-03-16T15:39:32.307Z,7.10
2019-03-16T15:41:59.125Z,7.10
2019-03-16T15:44:25.964Z,7.00
2019-03-16T15:46:52.821Z,7.00
2019-03-16T15:49:19.618Z,7.00
2019-03-16T15:51:46.451Z,6.90
2019-03-16T15:54:13.391Z,6.90
2019-03-16T15:56:40.286Z,6.80
2019-03-16T15:59:07.147Z,6.80
2019-03-16T16:01:34.093Z,6.70
2019-03-16T16:04:01.002Z,6.70
2019-03-16T16:06:27.793Z,6.70
2019-03-16T16:08:54.742Z,6.70
2019-03-16T16:11:21.553Z,6.70
2019-03-16T16:13:48.581Z,6.60
2019-03-16T16:16:15.525Z,6.60
2019-03-16T16:18:42.441Z,6.60
2019-03-16T16:21:09.345Z,6.60
2019-03-16T16:23:36.305Z,6.50
2019-03-16T16:26:03.236Z,6.50
2019-03-16T16:28:30.166Z,6.50
2019-03-16T16:30:57.041Z,6.50
2019-03-16T16:33:23.939Z,6.50
2019-03-16T16:35:50.722Z,6.40
2019-03-16T16:38:17.945Z,6.40
2019-03-16T16:40:44.879Z,6.30
2019-03-16T16:43:11.685Z,6.20
2019-03-16T16:45:39.446Z,6.00
2019-03-16T16:48:06.250Z,5.80
2019-03-16T16:50:33.055Z,5.70
2019-03-16T16:53:00.017Z,5.60
2019-03-16T16:55:26.817Z,5.50
2019-03-16T16:57:53.736Z,5.40
2019-03-16T17:00:20.716Z,5.40
2019-03-16T17:02:47.532Z,5.30
2019-03-16T17:05:14.537Z,5.20
2019-03-16T17:07:41.586Z,5.10
2019-03-16T17:10:10.344Z,5.00
2019-03-16T17:12:37.143Z,4.90
2019-03-16T17:15:04.624Z,4.90
2019-03-16T17:17:35.432Z,5.00
2019-03-16T17:20:00.268Z,4.90
2019-03-16T17:22:27.225Z,4.80
2019-03-16T17:24:54.470Z,4.80
2019-03-16T17:27:21.594Z,4.60
2019-03-16T17:29:48.435Z,4.60
2019-03-16T17:32:15.265Z,4.50
2019-03-16T17:34:42.074Z,4.40
2019-03-16T17:37:08.938Z,4.40
2019-03-16T17:39:35.860Z,4.30
2019-03-16T17:42:03.315Z,4.30
2019-03-16T17:44:30.227Z,4.30
2019-03-16T17:46:57.070Z,4.20
2019-03-16T17:49:23.933Z,4.20
2019-03-16T17:51:51.015Z,4.20
2019-03-16T17:54:19.877Z,4.10
2019-03-16T17:56:46.757Z,4.10
2019-03-16T17:59:13.676Z,4.00
2019-03-16T18:01:40.490Z,3.90
2019-03-16T18:04:07.419Z,3.90
2019-03-16T18:06:34.640Z,3.90
2019-03-16T18:09:02.009Z,3.90
2019-03-16T18:11:29.261Z,3.80
2019-03-16T18:13:56.132Z,3.80
2019-03-16T18:16:23.098Z,3.80
2019-03-16T18:18:49.926Z,3.70
2019-03-16T18:21:16.774Z,3.70
2019-03-16T18:23:43.611Z,3.70
2019-03-16T18:26:10.522Z,3.80
2019-03-16T18:28:37.575Z,3.70
2019-03-16T18:31:04.489Z,3.80
2019-03-16T18:33:34.189Z,3.80
2019-03-16T18:36:01.051Z,3.80
2019-03-16T18:38:28.074Z,3.80
2019-03-16T18:40:54.866Z,3.70
2019-03-16T18:43:21.838Z,3.70
2019-03-16T18:45:48.746Z,3.60
2019-03-16T18:48:15.786Z,3.60
2019-03-16T18:50:42.639Z,3.50
2019-03-16T18:53:09.555Z,3.40
2019-03-16T18:55:36.473Z,3.30
2019-03-16T18:58:03.444Z,3.20
2019-03-16T19:00:31.135Z,3.20
2019-03-16T19:02:58.055Z,3.10
2019-03-16T19:05:25.046Z,3.10
2019-03-16T19:07:51.964Z,3.10
2019-03-16T19:10:18.871Z,3.00
2019-03-16T19:12:45.748Z,3.00
2019-03-16T19:15:13.049Z,2.90
2019-03-16T19:17:40.093Z,2.90
2019-03-16T19:20:08.817Z,2.90
2019-03-16T19:22:35.809Z,2.80
2019-03-16T19:25:03.050Z,2.80
2019-03-16T19:27:29.978Z,2.70
2019-03-16T19:29:56.908Z,2.70
2019-03-16T19:32:33.078Z,2.70
2019-03-16T19:34:52.488Z,2.70
2019-03-16T19:37:21.378Z,2.70
2019-03-16T19:39:48.133Z,2.70
2019-03-16T19:42:14.987Z,2.60
2019-03-16T19:44:41.814Z,2.60
2019-03-16T19:47:08.733Z,2.50
2019-03-16T19:49:35.567Z,2.50
2019-03-16T19:52:02.457Z,2.50
2019-03-16T19:54:29.390Z,2.50
2019-03-16T19:56:56.317Z,2.50
2019-03-16T19:59:23.125Z,2.50
2019-03-16T20:01:50.217Z,2.50
2019-03-16T20:04:17.055Z,2.50
2019-03-16T20:06:43.862Z,2.60
2019-03-16T20:09:10.796Z,2.60
2019-03-16T20:11:37.780Z,2.70
2019-03-16T20:14:04.808Z,2.70
2019-03-16T20:16:31.638Z,2.70
2019-03-16T20:18:58.497Z,2.70
2019-03-16T20:21:25.392Z,2.80
2019-03-16T20:23:52.262Z,2.80
2019-03-16T20:26:19.230Z,2.80
2019-03-16T20:28:46.037Z,2.80
2019-03-16T20:31:12.956Z,2.90
2019-03-16T20:33:39.778Z,2.90
2019-03-16T20:36:06.596Z,2.90
2019-03-16T20:38:33.414Z,2.90
2019-03-16T20:41:00.428Z,2.90
2019-03-16T20:43:27.331Z,2.90
2019-03-16T20:45:54.136Z,3.00
2019-03-16T20:48:20.979Z,3.00
2019-03-16T20:50:48.059Z,3.10
2019-03-16T20:53:15.103Z,3.10
2019-03-16T20:55:41.957Z,3.10
2019-03-16T20:58:08.765Z,3.20
2019-03-16T21:00:35.583Z,3.20
2019-03-16T21:03:15.254Z,3.30
2019-03-16T21:05:31.364Z,3.30
2019-03-16T21:07:58.270Z,3.40
2019-03-16T21:10:25.118Z,3.40
2019-03-16T21:12:51.937Z,3.40
2019-03-16T21:15:18.933Z,3.50
2019-03-16T21:17:46.283Z,3.60
2019-03-16T21:20:13.320Z,3.70
2019-03-16T21:22:40.214Z,3.70
2019-03-16T21:25:07.660Z,3.70
2019-03-16T21:27:34.591Z,3.70
2019-03-16T21:30:01.487Z,3.70
2019-03-16T21:32:28.448Z,3.80
2019-03-16T21:34:55.274Z,3.80
2019-03-16T21:37:22.106Z,3.80
2019-03-16T21:39:49.071Z,3.90
2019-03-16T21:42:15.894Z,4.00
2019-03-16T21:44:42.701Z,4.00
2019-03-16T21:47:09.562Z,4.10
2019-03-16T21:49:36.470Z,4.10
2019-03-16T21:52:03.584Z,4.20
2019-03-16T21:54:30.515Z,4.20
2019-03-16T21:56:57.464Z,4.30
2019-03-16T21:59:26.437Z,4.30
2019-03-16T22:01:53.671Z,4.40
2019-03-16T22:04:20.490Z,4.40
2019-03-16T22:06:47.451Z,4.40
2019-03-16T22:09:14.312Z,4.40
2019-03-16T22:11:41.207Z,4.50
2019-03-16T22:14:08.042Z,4.50
2019-03-16T22:16:35.011Z,4.60
2019-03-16T22:19:01.936Z,4.60
2019-03-16T22:21:28.846Z,4.70
2019-03-16T22:23:55.825Z,4.80
2019-03-16T22:26:22.647Z,4.90
2019-03-16T22:28:49.437Z,5.00
2019-03-16T22:31:16.399Z,5.10
2019-03-16T22:33:54.009Z,5.30
2019-03-16T22:36:11.922Z,5.40
2019-03-16T22:38:38.792Z,5.50
2019-03-16T22:41:05.703Z,5.50
2019-03-16T22:43:32.617Z,5.70
2019-03-16T22:45:59.475Z,5.90
2019-03-16T22:48:26.338Z,5.90
2019-03-16T22:50:53.358Z,6.10
2019-03-16T22:53:20.329Z,6.10
2019-03-16T22:55:47.217Z,6.20
2019-03-16T22:58:14.022Z,6.20
2019-03-16T23:00:44.707Z,6.30
2019-03-16T23:03:11.822Z,6.30
2019-03-16T23:05:38.838Z,6.40
2019-03-16T23:08:05.910Z,6.40
2019-03-16T23:10:32.742Z,6.40
2019-03-16T23:12:59.533Z,6.40
2019-03-16T23:15:26.388Z,6.50
2019-03-16T23:17:53.317Z,6.40
2019-03-16T23:20:20.227Z,6.50
2019-03-16T23:22:47.079Z,6.50
2019-03-16T23:25:14.091Z,6.60
2019-03-16T23:27:40.904Z,6.60
2019-03-16T23:30:08.166Z,6.60
2019-03-16T23:32:34.966Z,6.60
2019-03-16T23:35:01.983Z,6.70
2019-03-16T23:37:29.038Z,6.70
2019-03-16T23:39:55.953Z,6.70
2019-03-16T23:42:22.778Z,6.70
2019-03-16T23:44:49.722Z,6.80
2019-03-16T23:47:16.518Z,6.80
2019-03-16T23:49:43.327Z,6.70
2019-03-16T23:52:10.169Z,6.80
2019-03-16T23:54:37.083Z,6.80
2019-03-16T23:57:03.972Z,6.70
2019-03-16T23:59:30.859Z,6.80
